createdAt,value
2018-06-29T00:01:47.535Z,20.65
2018-06-29T00:04:50.901Z,20.59
2018-06-29T00:07:54.238Z,20.70
2018-06-29T00:10:57.443Z,20.69
2018-06-29T00:14:00.677Z,20.64
2018-06-29T00:17:03.899Z,20.43
2018-06-29T00:20:07.075Z,20.46
2018-06-29T00:23:10.393Z,20.18
2018-06-29T00:26:13.595Z,20.46
2018-06-29T00:29:17.038Z,20.45
2018-06-29T00:32:20.074Z,20.29
2018-06-29T00:35:23.194Z,20.29
2018-06-29T00:38:26.398Z,20.32
2018-06-29T00:41:29.604Z,20.35
2018-06-29T00:44:32.817Z,20.22
2018-06-29T00:47:35.981Z,20.07
2018-06-29T00:50:39.157Z,20.08
2018-06-29T00:53:42.354Z,20.11
2018-06-29T00:56:45.495Z,20.17
2018-06-29T00:59:48.651Z,20.09
2018-06-29T01:02:51.846Z,20.05
2018-06-29T01:05:55.010Z,19.97
2018-06-29T01:08:58.342Z,20.12
2018-06-29T01:12:01.526Z,19.94
2018-06-29T01:15:04.843Z,19.91
2018-06-29T01:18:08.235Z,19.81
2018-06-29T01:21:11.502Z,19.77
2018-06-29T01:24:14.702Z,19.79
2018-06-29T01:27:17.951Z,19.77
2018-06-29T01:30:21.090Z,19.81
2018-06-29T01:33:24.330Z,19.81
2018-06-29T01:36:27.493Z,19.81
2018-06-29T01:39:30.682Z,19.71
2018-06-29T01:42:33.923Z,19.63
2018-06-29T01:45:37.115Z,19.62
2018-06-29T01:48:40.435Z,19.58
2018-06-29T01:51:43.677Z,19.48
2018-06-29T01:54:46.939Z,19.44
2018-06-29T01:57:50.075Z,19.49
2018-06-29T02:00:53.354Z,19.44
2018-06-29T02:03:57.435Z,19.47
2018-06-29T02:07:00.583Z,19.52
2018-06-29T02:10:03.874Z,19.34
2018-06-29T02:13:07.103Z,19.13
2018-06-29T02:16:10.376Z,19.00
2018-06-29T02:19:13.566Z,18.92
2018-06-29T02:22:16.701Z,18.95
2018-06-29T02:25:19.866Z,18.86
2018-06-29T02:28:23.596Z,18.79
2018-06-29T02:31:26.859Z,18.74
2018-06-29T02:34:30.060Z,18.66
2018-06-29T02:37:33.319Z,18.62
2018-06-29T02:40:36.573Z,18.41
2018-06-29T02:43:39.787Z,18.43
2018-06-29T02:46:42.918Z,18.32
2018-06-29T02:49:46.140Z,18.31
2018-06-29T02:52:49.330Z,18.19
2018-06-29T02:55:52.550Z,18.33
2018-06-29T02:58:56.390Z,18.31
2018-06-29T03:02:00.548Z,18.35
2018-06-29T03:05:04.575Z,18.31
2018-06-29T03:08:07.774Z,18.25
2018-06-29T03:11:10.942Z,18.19
2018-06-29T03:14:14.154Z,18.17
2018-06-29T03:17:17.303Z,18.14
2018-06-29T03:20:20.524Z,18.21
2018-06-29T03:23:23.699Z,18.00
2018-06-29T03:26:26.859Z,17.96
2018-06-29T03:29:30.026Z,17.93
2018-06-29T03:32:33.207Z,17.89
2018-06-29T03:35:36.518Z,17.97
2018-06-29T03:38:39.670Z,17.77
2018-06-29T03:41:42.846Z,17.89
2018-06-29T03:44:46.078Z,17.95
2018-06-29T03:47:49.246Z,17.93
2018-06-29T03:50:52.434Z,17.91
2018-06-29T03:53:55.639Z,17.88
2018-06-29T03:56:58.782Z,17.95
2018-06-29T04:00:01.996Z,17.98
2018-06-29T04:03:06.913Z,17.98
2018-06-29T04:06:10.167Z,17.97
2018-06-29T04:09:13.358Z,17.96
2018-06-29T04:12:16.499Z,17.83
2018-06-29T04:15:19.729Z,17.96
2018-06-29T04:18:22.963Z,18.00
2018-06-29T04:21:26.138Z,18.01
2018-06-29T04:24:29.338Z,18.12
2018-06-29T04:27:34.009Z,18.24
2018-06-29T04:30:37.208Z,18.23
2018-06-29T04:33:40.361Z,18.11
2018-06-29T04:36:43.579Z,18.19
2018-06-29T04:39:46.760Z,18.27
2018-06-29T04:42:49.998Z,18.34
2018-06-29T04:45:53.235Z,18.25
2018-06-29T04:48:56.730Z,18.27
2018-06-29T04:52:01.051Z,18.41
2018-06-29T04:55:04.379Z,18.47
2018-06-29T04:58:07.814Z,18.48
2018-06-29T05:01:11.014Z,18.60
2018-06-29T05:04:14.304Z,18.66
2018-06-29T05:07:17.537Z,18.58
2018-06-29T05:10:21.280Z,18.66
2018-06-29T05:13:24.646Z,18.76
2018-06-29T05:16:28.576Z,18.81
2018-06-29T05:19:33.008Z,18.98
2018-06-29T05:22:36.266Z,18.94
2018-06-29T05:25:39.497Z,19.08
2018-06-29T05:28:42.932Z,19.11
2018-06-29T05:31:46.978Z,19.16
2018-06-29T05:34:50.233Z,19.22
2018-06-29T05:37:53.488Z,19.33
2018-06-29T05:40:56.655Z,19.34
2018-06-29T05:43:59.781Z,19.37
2018-06-29T05:47:03.085Z,19.56
2018-06-29T05:50:06.666Z,19.63
2018-06-29T05:53:10.253Z,19.74
2018-06-29T05:56:13.378Z,19.79
2018-06-29T05:59:16.520Z,19.97
2018-06-29T06:02:19.719Z,20.03
2018-06-29T06:05:22.940Z,20.06
2018-06-29T06:08:26.118Z,20.20
2018-06-29T06:11:29.323Z,20.43
2018-06-29T06:14:32.495Z,20.51
2018-06-29T06:17:35.710Z,20.57
2018-06-29T06:20:38.898Z,20.63
2018-06-29T06:23:42.038Z,20.75
2018-06-29T06:26:45.291Z,20.84
2018-06-29T06:29:48.443Z,20.84
2018-06-29T06:32:51.729Z,20.93
2018-06-29T06:35:54.936Z,21.03
2018-06-29T06:38:58.154Z,21.10
2018-06-29T06:42:01.389Z,21.15
2018-06-29T06:45:05.208Z,21.40
2018-06-29T06:48:08.499Z,21.43
2018-06-29T06:51:12.602Z,21.72
2018-06-29T06:54:15.880Z,21.81
2018-06-29T06:57:19.161Z,21.82
2018-06-29T07:00:22.348Z,21.99
2018-06-29T07:03:25.619Z,22.11
2018-06-29T07:06:28.965Z,22.28
2018-06-29T07:09:32.171Z,22.64
2018-06-29T07:12:35.495Z,22.98
2018-06-29T07:15:38.716Z,23.10
2018-06-29T07:18:41.925Z,23.26
2018-06-29T07:21:45.249Z,23.56
2018-06-29T07:24:48.540Z,23.63
2018-06-29T07:27:51.832Z,23.71
2018-06-29T07:30:55.306Z,23.72
2018-06-29T07:33:58.694Z,23.70
2018-06-29T07:37:02.574Z,23.75
2018-06-29T07:40:06.391Z,23.79
2018-06-29T07:43:10.231Z,23.80
2018-06-29T07:46:14.598Z,24.00
2018-06-29T07:49:18.409Z,24.03
2018-06-29T07:52:21.992Z,24.14
2018-06-29T07:55:25.969Z,24.18
2018-06-29T07:58:29.313Z,24.30
2018-06-29T08:01:32.838Z,24.45
2018-06-29T08:04:36.464Z,24.60
2018-06-29T08:07:39.908Z,24.73
2018-06-29T08:10:43.415Z,24.73
2018-06-29T08:13:46.815Z,24.88
2018-06-29T08:16:51.120Z,24.98
2018-06-29T08:19:54.550Z,25.01
2018-06-29T08:22:58.182Z,25.24
2018-06-29T08:26:13.773Z,25.37
2018-06-29T08:29:18.478Z,25.46
2018-06-29T08:32:21.951Z,25.48
2018-06-29T08:35:25.623Z,25.66
2018-06-29T08:38:30.424Z,25.84
2018-06-29T08:41:33.969Z,25.95
2018-06-29T08:44:37.444Z,26.04
2018-06-29T08:47:40.693Z,26.20
2018-06-29T08:50:43.967Z,25.96
2018-06-29T08:53:47.243Z,26.17
2018-06-29T08:56:50.494Z,26.34
2018-06-29T08:59:53.650Z,26.47
2018-06-29T09:02:56.879Z,26.67
2018-06-29T09:06:00.154Z,26.88
2018-06-29T09:09:03.605Z,26.94
2018-06-29T09:12:07.215Z,27.16
2018-06-29T09:15:10.454Z,26.74
2018-06-29T09:18:13.675Z,27.06
2018-06-29T09:21:16.900Z,27.29
2018-06-29T09:24:20.136Z,27.19
2018-06-29T09:27:23.392Z,27.55
2018-06-29T09:30:26.906Z,27.62
2018-06-29T09:33:30.270Z,27.58
2018-06-29T09:36:33.571Z,27.75
2018-06-29T09:39:36.892Z,28.17
2018-06-29T09:42:40.170Z,28.21
2018-06-29T09:45:44.687Z,28.03
2018-06-29T09:48:47.920Z,27.97
2018-06-29T09:51:51.200Z,28.15
2018-06-29T09:54:54.580Z,28.16
2018-06-29T09:57:57.789Z,27.79
2018-06-29T10:01:01.008Z,27.77
2018-06-29T10:04:04.397Z,28.06
2018-06-29T10:07:07.704Z,28.23
2018-06-29T10:10:10.923Z,28.72
2018-06-29T10:13:14.193Z,28.06
2018-06-29T10:16:17.379Z,28.08
2018-06-29T10:19:20.637Z,28.17
2018-06-29T10:22:23.877Z,28.50
2018-06-29T10:25:27.202Z,28.36
2018-06-29T10:28:31.053Z,28.50
2018-06-29T10:31:34.477Z,28.81
2018-06-29T10:34:38.128Z,28.72
2018-06-29T10:37:41.658Z,28.80
2018-06-29T10:40:45.101Z,28.99
2018-06-29T10:43:48.541Z,29.18
2018-06-29T10:46:51.735Z,29.17
2018-06-29T10:49:55.029Z,29.36
2018-06-29T10:52:58.346Z,29.49
2018-06-29T10:56:01.725Z,29.28
2018-06-29T10:59:05.017Z,29.59
2018-06-29T11:02:08.408Z,29.41
2018-06-29T11:05:11.881Z,29.27
2018-06-29T11:08:15.324Z,29.17
2018-06-29T11:11:19.413Z,29.77
2018-06-29T11:14:23.287Z,30.15
2018-06-29T11:17:26.688Z,30.18
2018-06-29T11:20:29.950Z,30.26
2018-06-29T11:23:33.428Z,30.00
2018-06-29T11:26:36.790Z,29.60
2018-06-29T11:29:40.228Z,29.61
2018-06-29T11:32:43.467Z,29.26
2018-06-29T11:35:46.776Z,29.52
2018-06-29T11:38:50.083Z,29.68
2018-06-29T11:41:53.455Z,29.65
2018-06-29T11:44:56.936Z,29.69
2018-06-29T11:48:00.182Z,29.88
2018-06-29T11:51:03.538Z,30.03
2018-06-29T11:54:07.335Z,30.10
2018-06-29T11:57:10.720Z,30.49
2018-06-29T12:00:14.756Z,30.52
2018-06-29T12:03:18.108Z,30.42
2018-06-29T12:06:21.463Z,30.53
2018-06-29T12:09:24.802Z,30.33
2018-06-29T12:12:28.877Z,30.73
2018-06-29T12:15:32.254Z,30.55
2018-06-29T12:18:35.837Z,30.58
2018-06-29T12:21:40.263Z,30.75
2018-06-29T12:24:44.542Z,30.98
2018-06-29T12:27:48.373Z,30.82
2018-06-29T12:30:54.610Z,31.35
2018-06-29T12:33:58.131Z,31.45
2018-06-29T12:37:01.369Z,31.60
2018-06-29T12:40:04.787Z,31.32
2018-06-29T12:43:08.666Z,31.22
2018-06-29T12:46:13.160Z,31.29
2018-06-29T12:49:23.142Z,31.67
2018-06-29T12:52:26.583Z,31.62
2018-06-29T12:55:29.929Z,31.72
2018-06-29T12:58:33.352Z,31.93
2018-06-29T13:01:36.724Z,31.94
2018-06-29T13:04:40.201Z,32.08
2018-06-29T13:07:43.484Z,31.84
2018-06-29T13:10:49.043Z,32.03
2018-06-29T13:14:27.476Z,32.07
2018-06-29T13:17:31.118Z,31.89
2018-06-29T13:20:46.372Z,32.17
2018-06-29T13:24:05.996Z,32.11
2018-06-29T13:27:24.437Z,31.73
2018-06-29T13:30:34.507Z,31.92
2018-06-29T13:33:38.050Z,32.06
2018-06-29T13:36:41.307Z,31.82
2018-06-29T13:43:32.078Z,32.07
2018-06-29T13:46:48.150Z,32.06
2018-06-29T13:50:03.131Z,31.90
2018-06-29T13:57:27.965Z,31.73
2018-06-29T14:00:39.143Z,31.28
2018-06-29T14:10:35.409Z,31.03
2018-06-29T14:14:19.089Z,30.99
2018-06-29T14:17:36.029Z,30.82
2018-06-29T14:24:10.288Z,30.35
2018-06-29T14:27:37.285Z,30.40
2018-06-29T14:31:05.987Z,30.11
2018-06-29T14:36:38.669Z,30.11
2018-06-29T14:40:15.175Z,30.15
2018-06-29T14:43:41.238Z,30.05
2018-06-29T14:50:06.997Z,30.14
2018-06-29T14:53:18.399Z,30.14
2018-06-29T14:56:24.810Z,30.41
2018-06-29T15:00:03.404Z,30.06
2018-06-29T15:03:06.815Z,30.25
2018-06-29T15:06:10.264Z,29.70
2018-06-29T15:09:13.585Z,29.51
2018-06-29T15:12:16.930Z,29.60
2018-06-29T15:15:20.324Z,29.62
2018-06-29T15:18:23.851Z,29.65
2018-06-29T15:21:27.285Z,29.63
2018-06-29T15:24:30.962Z,29.56
2018-06-29T15:27:34.866Z,29.31
2018-06-29T15:30:38.552Z,29.15
2018-06-29T15:33:42.032Z,28.74
2018-06-29T15:36:45.523Z,28.24
2018-06-29T15:39:49.266Z,28.20
2018-06-29T15:42:53.916Z,27.60
2018-06-29T15:45:57.558Z,26.85
2018-06-29T15:49:00.995Z,27.10
2018-06-29T15:52:06.194Z,27.11
2018-06-29T15:55:09.795Z,26.71
2018-06-29T15:58:15.558Z,26.69
2018-06-29T16:01:18.863Z,26.19
2018-06-29T16:04:22.242Z,26.27
2018-06-29T16:07:25.716Z,26.41
2018-06-29T16:10:29.063Z,26.45
2018-06-29T16:13:32.360Z,25.94
2018-06-29T16:16:35.902Z,26.04
2018-06-29T16:19:40.054Z,26.14
2018-06-29T16:22:43.457Z,25.95
2018-06-29T16:25:46.812Z,25.74
2018-06-29T16:28:50.255Z,25.87
2018-06-29T16:31:53.552Z,25.69
2018-06-29T16:34:57.723Z,25.59
2018-06-29T16:38:01.250Z,25.04
2018-06-29T16:41:04.753Z,25.50
2018-06-29T16:44:08.271Z,25.43
2018-06-29T16:47:11.930Z,25.29
2018-06-29T16:50:15.753Z,25.30
2018-06-29T16:53:19.254Z,25.13
2018-06-29T16:56:22.700Z,25.18
2018-06-29T16:59:26.318Z,25.39
2018-06-29T17:02:29.851Z,24.86
2018-06-29T17:05:33.488Z,25.00
2018-06-29T17:08:37.105Z,25.00
2018-06-29T17:11:40.514Z,24.98
2018-06-29T17:14:43.981Z,24.95
2018-06-29T17:17:47.752Z,24.85
2018-06-29T17:20:51.328Z,24.75
2018-06-29T17:23:54.775Z,24.89
2018-06-29T17:26:58.468Z,24.88
2018-06-29T17:30:01.919Z,24.71
2018-06-29T17:33:05.491Z,24.85
2018-06-29T17:36:08.870Z,24.81
2018-06-29T17:39:12.891Z,24.38
2018-06-29T17:42:16.754Z,24.69
2018-06-29T17:45:20.494Z,24.78
2018-06-29T17:48:24.540Z,24.78
2018-06-29T17:51:28.740Z,24.63
2018-06-29T17:54:32.536Z,24.65
2018-06-29T17:57:36.125Z,24.38
2018-06-29T18:00:39.822Z,24.53
2018-06-29T18:03:48.917Z,24.42
2018-06-29T18:06:52.678Z,24.05
2018-06-29T18:09:56.601Z,24.29
2018-06-29T18:13:01.265Z,23.90
2018-06-29T18:16:07.652Z,24.05
2018-06-29T18:19:17.864Z,23.83
2018-06-29T18:22:21.889Z,23.99
2018-06-29T18:25:25.650Z,23.63
2018-06-29T18:28:29.176Z,23.67
2018-06-29T18:31:33.472Z,23.75
2018-06-29T18:34:37.587Z,23.52
2018-06-29T18:37:41.159Z,23.69
2018-06-29T18:40:44.979Z,23.55
2018-06-29T18:43:48.774Z,23.16
2018-06-29T18:46:52.722Z,23.43
2018-06-29T18:49:56.531Z,23.28
2018-06-29T18:53:01.132Z,23.35
2018-06-29T18:56:05.536Z,23.36
2018-06-29T18:59:09.244Z,23.31
2018-06-29T19:02:12.869Z,23.08
2018-06-29T19:05:16.664Z,22.93
2018-06-29T19:08:20.384Z,23.09
2018-06-29T19:11:24.496Z,23.08
2018-06-29T19:14:28.493Z,23.08
2018-06-29T19:17:32.452Z,23.17
2018-06-29T19:20:36.101Z,23.07
2018-06-29T19:23:39.854Z,23.13
2018-06-29T19:26:43.454Z,23.18
2018-06-29T19:29:47.270Z,23.14
2018-06-29T19:32:51.096Z,23.10
2018-06-29T19:35:54.629Z,23.11
2018-06-29T19:38:58.305Z,22.98
2018-06-29T19:42:01.994Z,22.98
2018-06-29T19:45:05.671Z,22.41
2018-06-29T19:48:09.209Z,22.15
2018-06-29T19:51:12.841Z,21.91
2018-06-29T19:54:16.813Z,21.80
2018-06-29T19:57:21.011Z,21.70
2018-06-29T20:00:24.406Z,21.33
2018-06-29T20:03:28.001Z,21.47
2018-06-29T20:06:31.368Z,21.69
2018-06-29T20:09:35.085Z,21.51
2018-06-29T20:12:38.781Z,21.35
2018-06-29T20:15:42.117Z,21.22
2018-06-29T20:18:45.805Z,21.12
2018-06-29T20:21:49.559Z,21.09
2018-06-29T20:24:52.969Z,20.51
2018-06-29T20:27:56.557Z,20.57
2018-06-29T20:30:59.979Z,20.55
2018-06-29T20:34:03.473Z,20.59
2018-06-29T20:37:07.207Z,20.65
2018-06-29T20:40:11.289Z,20.58
2018-06-29T20:43:16.257Z,20.16
2018-06-29T20:46:19.852Z,20.31
2018-06-29T20:49:24.232Z,19.94
2018-06-29T20:52:27.751Z,20.14
2018-06-29T20:55:31.233Z,20.03
2018-06-29T20:58:34.967Z,19.98
2018-06-29T21:01:38.430Z,19.82
2018-06-29T21:04:41.969Z,19.87
2018-06-29T21:07:45.404Z,19.88
2018-06-29T21:10:48.993Z,19.87
2018-06-29T21:13:54.733Z,19.68
2018-06-29T21:16:59.801Z,19.70
2018-06-29T21:20:03.259Z,19.41
2018-06-29T21:23:07.325Z,19.46
2018-06-29T21:26:11.289Z,19.51
2018-06-29T21:29:14.692Z,19.36
2018-06-29T21:32:18.083Z,19.15
2018-06-29T21:35:21.720Z,19.11
2018-06-29T21:38:25.306Z,18.75
2018-06-29T21:41:28.679Z,18.82
2018-06-29T21:44:32.096Z,18.88
2018-06-29T21:47:35.778Z,18.84
2018-06-29T21:50:39.235Z,18.61
2018-06-29T21:53:42.609Z,18.83
2018-06-29T21:56:46.011Z,18.62
2018-06-29T21:59:49.300Z,18.69
2018-06-29T22:02:52.711Z,18.96
2018-06-29T22:05:56.144Z,18.80
2018-06-29T22:08:59.586Z,18.39
2018-06-29T22:12:02.916Z,18.60
2018-06-29T22:15:10.600Z,18.62
2018-06-29T22:18:13.825Z,18.51
2018-06-29T22:21:17.171Z,18.46
2018-06-29T22:24:20.472Z,18.43
2018-06-29T22:27:23.736Z,18.11
2018-06-29T22:30:27.027Z,18.16
2018-06-29T22:33:30.357Z,17.73
2018-06-29T22:36:33.633Z,17.91
2018-06-29T22:39:36.995Z,18.01
2018-06-29T22:42:40.192Z,17.77
2018-06-29T22:45:43.464Z,17.88
2018-06-29T22:48:46.745Z,17.96
2018-06-29T22:51:50.035Z,17.92
2018-06-29T22:54:53.366Z,17.90
2018-06-29T22:57:56.613Z,17.73
2018-06-29T23:00:59.953Z,17.89
2018-06-29T23:04:03.179Z,17.68
2018-06-29T23:07:06.390Z,17.82
2018-06-29T23:10:09.780Z,17.83
2018-06-29T23:13:12.992Z,17.68
2018-06-29T23:16:16.536Z,17.63
2018-06-29T23:19:19.794Z,17.59
2018-06-29T23:22:22.980Z,17.54
2018-06-29T23:25:26.154Z,17.54
2018-06-29T23:28:29.749Z,17.48
2018-06-29T23:31:32.946Z,17.34
2018-06-29T23:34:47.206Z,17.32
2018-06-29T23:37:54.533Z,17.29
2018-06-29T23:41:06.498Z,17.23
2018-06-29T23:44:29.962Z,17.31
2018-06-29T23:47:35.119Z,17.27
2018-06-29T23:50:42.928Z,17.28
2018-06-29T23:53:48.268Z,16.94
2018-06-29T23:56:51.511Z,17.06
2018-06-29T23:59:55.295Z,16.94
